createdAt,value
2019-04-01T00:00:36.136Z,102070.94
2019-04-01T00:03:09.379Z,102075.04
2019-04-01T00:05:41.689Z,102075.52
2019-04-01T00:08:13.219Z,102078.98
2019-04-01T00:10:44.801Z,102084.34
2019-04-01T00:13:17.919Z,102081.06
2019-04-01T00:15:50.526Z,102074.53
2019-04-01T00:18:22.711Z,102076.69
2019-04-01T00:20:54.239Z,102083.36
2019-04-01T00:23:26.625Z,102088.20
2019-04-01T00:25:58.701Z,102087.55
2019-04-01T00:28:30.258Z,102086.59
2019-04-01T00:31:01.786Z,102085.23
2019-04-01T00:33:34.402Z,102082.91
2019-04-01T00:36:05.997Z,102084.69
2019-04-01T00:38:37.893Z,102084.44
2019-04-01T00:41:09.522Z,102077.69
2019-04-01T00:43:53.528Z,102087.13
2019-04-01T00:46:26.261Z,102097.55
2019-04-01T00:48:57.894Z,102095.46
2019-04-01T00:51:29.581Z,102091.41
2019-04-01T00:54:02.346Z,102092.34
2019-04-01T00:56:33.943Z,102089.62
2019-04-01T00:59:06.288Z,102094.83
2019-04-01T01:01:37.881Z,102101.36
2019-04-01T01:04:09.398Z,102106.29
2019-04-01T01:06:41.417Z,102095.61
2019-04-01T01:09:13.061Z,102105.28
2019-04-01T01:11:45.580Z,102107.14
2019-04-01T01:14:17.235Z,102102.27
2019-04-01T01:16:49.866Z,102104.77
2019-04-01T01:19:21.667Z,102107.00
2019-04-01T01:21:53.295Z,102113.73
2019-04-01T01:24:25.587Z,102102.59
2019-04-01T01:26:57.094Z,102107.26
2019-04-01T01:29:28.999Z,102104.31
2019-04-01T01:32:00.507Z,102102.10
2019-04-01T01:34:32.032Z,102106.03
2019-04-01T01:37:03.743Z,102101.52
2019-04-01T01:39:35.294Z,102100.11
2019-04-01T01:42:07.493Z,102103.16
2019-04-01T01:44:39.015Z,102112.97
2019-04-01T01:47:10.525Z,102115.98
2019-04-01T01:49:42.175Z,102116.29
2019-04-01T01:52:13.693Z,102113.59
2019-04-01T01:54:45.336Z,102120.20
2019-04-01T01:57:16.866Z,102122.94
2019-04-01T01:59:48.485Z,102120.12
2019-04-01T02:02:20.207Z,102122.45
2019-04-01T02:04:52.943Z,102122.52
2019-04-01T02:07:24.443Z,102130.92
2019-04-01T02:09:56.011Z,102135.30
2019-04-01T02:12:27.530Z,102139.66
2019-04-01T02:14:59.049Z,102139.35
2019-04-01T02:17:30.695Z,102136.84
2019-04-01T02:20:02.234Z,102135.59
2019-04-01T02:22:33.839Z,102134.60
2019-04-01T02:25:06.656Z,102141.72
2019-04-01T02:27:38.189Z,102144.21
2019-04-01T02:30:10.632Z,102145.30
2019-04-01T02:32:42.240Z,102144.63
2019-04-01T02:35:13.980Z,102151.63
2019-04-01T02:37:45.597Z,102151.86
2019-04-01T02:40:21.683Z,102149.77
2019-04-01T02:42:51.423Z,102146.35
2019-04-01T02:45:23.422Z,102149.02
2019-04-01T02:47:54.946Z,102150.42
2019-04-01T02:50:26.591Z,102150.34
2019-04-01T02:52:58.865Z,102146.57
2019-04-01T02:55:30.793Z,102148.90
2019-04-01T02:58:02.414Z,102150.41
2019-04-01T03:00:34.226Z,102141.83
2019-04-01T03:03:05.886Z,102148.02
2019-04-01T03:05:37.531Z,102149.53
2019-04-01T03:08:09.414Z,102151.02
2019-04-01T03:10:41.055Z,102160.17
2019-04-01T03:13:13.666Z,102155.72
2019-04-01T03:15:45.180Z,102161.75
2019-04-01T03:18:16.688Z,102163.32
2019-04-01T03:20:48.217Z,102169.31
2019-04-01T03:23:19.981Z,102169.81
2019-04-01T03:25:51.819Z,102169.19
2019-04-01T03:28:23.476Z,102177.72
2019-04-01T03:30:54.993Z,102174.42
2019-04-01T03:33:27.341Z,102177.18
2019-04-01T03:35:58.992Z,102177.17
2019-04-01T03:38:31.023Z,102188.52
2019-04-01T03:41:02.865Z,102187.31
2019-04-01T03:43:35.716Z,102190.98
2019-04-01T03:46:07.334Z,102194.05
2019-04-01T03:48:38.847Z,102191.18
2019-04-01T03:51:10.355Z,102194.61
2019-04-01T03:53:42.352Z,102192.96
2019-04-01T03:56:14.313Z,102195.11
2019-04-01T03:58:45.816Z,102201.45
2019-04-01T04:01:18.179Z,102204.05
2019-04-01T04:03:49.821Z,102200.89
2019-04-01T04:06:21.410Z,102200.48
2019-04-01T04:08:53.918Z,102207.17
2019-04-01T04:11:25.830Z,102206.09
2019-04-01T04:13:57.524Z,102206.16
2019-04-01T04:16:30.065Z,102210.73
2019-04-01T04:19:02.542Z,102202.63
2019-04-01T04:21:34.250Z,102204.27
2019-04-01T04:24:05.780Z,102216.27
2019-04-01T04:26:37.771Z,102208.39
2019-04-01T04:29:09.290Z,102219.12
2019-04-01T04:31:40.813Z,102217.64
2019-04-01T04:34:12.453Z,102217.84
2019-04-01T04:36:45.257Z,102214.33
2019-04-01T04:39:17.260Z,102216.61
2019-04-01T04:41:49.368Z,102227.08
2019-04-01T04:44:20.883Z,102228.00
2019-04-01T04:46:52.419Z,102226.86
2019-04-01T04:49:24.854Z,102227.73
2019-04-01T04:51:57.474Z,102226.11
2019-04-01T04:54:29.705Z,102233.52
2019-04-01T04:57:01.224Z,102237.66
2019-04-01T04:59:32.868Z,102238.12
2019-04-01T05:02:05.104Z,102244.20
2019-04-01T05:04:36.701Z,102240.91
2019-04-01T05:07:08.271Z,102246.09
2019-04-01T05:09:41.208Z,102248.20
2019-04-01T05:12:12.684Z,102250.14
2019-04-01T05:14:44.497Z,102255.44
2019-04-01T05:17:16.048Z,102255.64
2019-04-01T05:19:48.041Z,102261.31
2019-04-01T05:22:19.841Z,102263.26
2019-04-01T05:24:51.914Z,102268.07
2019-04-01T05:27:26.398Z,102276.90
2019-04-01T05:29:57.936Z,102278.13
2019-04-01T05:32:29.452Z,102278.34
2019-04-01T05:35:01.065Z,102276.37
2019-04-01T05:37:33.743Z,102284.70
2019-04-01T05:40:07.663Z,102287.91
2019-04-01T05:42:41.583Z,102281.50
2019-04-01T05:45:13.197Z,102277.72
2019-04-01T05:47:46.366Z,102281.08
2019-04-01T05:50:18.170Z,102282.55
2019-04-01T05:52:51.024Z,102288.84
2019-04-01T05:55:22.730Z,102285.36
2019-04-01T05:57:54.268Z,102280.84
2019-04-01T06:00:39.359Z,102284.63
2019-04-01T06:03:10.936Z,102279.54
2019-04-01T06:05:42.543Z,102288.70
2019-04-01T06:08:14.343Z,102296.11
2019-04-01T06:10:46.878Z,102297.50
2019-04-01T06:13:18.476Z,102292.13
2019-04-01T06:15:50.012Z,102297.00
2019-04-01T06:18:22.221Z,102296.57
2019-04-01T06:20:54.131Z,102293.19
2019-04-01T06:23:26.623Z,102295.08
2019-04-01T06:25:58.356Z,102295.14
2019-04-01T06:28:29.900Z,102294.31
2019-04-01T06:31:02.785Z,102294.30
2019-04-01T06:33:34.291Z,102301.41
2019-04-01T06:36:05.818Z,102297.33
2019-04-01T06:38:37.657Z,102302.30
2019-04-01T06:41:09.238Z,102299.26
2019-04-01T06:43:40.777Z,102304.47
2019-04-01T06:46:12.333Z,102308.44
2019-04-01T06:48:43.858Z,102307.48
2019-04-01T06:51:15.362Z,102302.84
2019-04-01T06:53:47.014Z,102305.78
2019-04-01T06:56:18.540Z,102306.26
2019-04-01T06:58:50.118Z,102305.39
2019-04-01T07:01:22.138Z,102308.13
2019-04-01T07:03:53.887Z,102306.17
2019-04-01T07:06:25.536Z,102304.42
2019-04-01T07:08:57.047Z,102308.77
2019-04-01T07:11:28.719Z,102302.11
2019-04-01T07:14:00.439Z,102304.62
2019-04-01T07:16:34.177Z,102311.20
2019-04-01T07:19:06.170Z,102310.92
2019-04-01T07:21:37.704Z,102310.54
2019-04-01T07:24:09.349Z,102313.74
2019-04-01T07:26:41.344Z,102320.64
2019-04-01T07:29:12.984Z,102323.95
2019-04-01T07:31:44.524Z,102321.00
2019-04-01T07:34:16.553Z,102321.98
2019-04-01T07:36:48.078Z,102323.93
2019-04-01T07:39:19.608Z,102329.75
2019-04-01T07:41:51.723Z,102326.70
2019-04-01T07:44:23.227Z,102336.45
2019-04-01T07:46:54.775Z,102337.88
2019-04-01T07:49:27.103Z,102335.49
2019-04-01T07:51:58.733Z,102340.31
2019-04-01T07:54:33.909Z,102343.30
2019-04-01T07:57:05.385Z,102346.33
2019-04-01T07:59:36.912Z,102342.09
2019-04-01T08:02:09.521Z,102342.91
2019-04-01T08:04:41.176Z,102338.87
2019-04-01T08:07:13.634Z,102343.34
2019-04-01T08:09:46.900Z,102347.61
2019-04-01T08:12:18.847Z,102347.22
2019-04-01T08:14:50.357Z,102346.00
2019-04-01T08:17:21.894Z,102349.38
2019-04-01T08:19:53.521Z,102348.25
2019-04-01T08:22:25.184Z,102342.52
2019-04-01T08:24:56.654Z,102350.65
2019-04-01T08:27:28.468Z,102346.27
2019-04-01T08:30:00.398Z,102350.34
2019-04-01T08:32:32.565Z,102349.30
2019-04-01T08:35:06.935Z,102347.87
2019-04-01T08:37:40.563Z,102354.50
2019-04-01T08:40:12.936Z,102343.34
2019-04-01T08:42:44.850Z,102335.72
2019-04-01T08:45:16.465Z,102341.80
2019-04-01T08:47:48.128Z,102338.95
2019-04-01T08:50:19.643Z,102339.30
2019-04-01T08:52:53.169Z,102341.82
2019-04-01T08:55:24.434Z,102348.99
2019-04-01T08:57:56.674Z,102345.47
2019-04-01T09:00:29.020Z,102348.05
2019-04-01T09:03:00.621Z,102341.28
2019-04-01T09:05:32.175Z,102331.59
2019-04-01T09:08:03.683Z,102339.55
2019-04-01T09:10:36.845Z,102347.53
2019-04-01T09:13:08.448Z,102335.52
2019-04-01T09:15:40.242Z,102344.73
2019-04-01T09:18:11.905Z,102346.52
2019-04-01T09:20:43.741Z,102343.86
2019-04-01T09:23:15.257Z,102352.70
2019-04-01T09:25:46.997Z,102346.44
2019-04-01T09:28:18.527Z,102345.70
2019-04-01T09:30:50.074Z,102342.20
2019-04-01T09:33:21.585Z,102348.08
2019-04-01T09:35:57.902Z,102336.75
2019-04-01T09:38:29.742Z,102343.06
2019-04-01T09:41:01.389Z,102339.13
2019-04-01T09:43:34.257Z,102337.84
2019-04-01T09:46:05.810Z,102339.24
2019-04-01T09:48:37.398Z,102334.43
2019-04-01T09:51:09.055Z,102331.94
2019-04-01T09:53:40.585Z,102330.16
2019-04-01T09:56:12.359Z,102335.20
2019-04-01T09:58:44.263Z,102328.67
2019-04-01T10:01:15.786Z,102333.41
2019-04-01T10:03:47.303Z,102328.62
2019-04-01T10:06:18.857Z,102335.30
2019-04-01T10:08:50.463Z,102329.80
2019-04-01T10:11:22.124Z,102327.08
2019-04-01T10:13:53.658Z,102327.69
2019-04-01T10:16:26.609Z,102324.25
2019-04-01T10:18:58.259Z,102333.80
2019-04-01T10:21:29.981Z,102330.17
2019-04-01T10:24:03.187Z,102313.03
2019-04-01T10:26:34.702Z,102318.57
2019-04-01T10:29:06.209Z,102305.50
2019-04-01T10:31:38.702Z,102312.48
2019-04-01T10:34:11.263Z,102307.09
2019-04-01T10:36:42.925Z,102309.67
2019-04-01T10:39:14.840Z,102298.16
2019-04-01T10:41:46.657Z,102296.20
2019-04-01T10:44:18.413Z,102300.52
2019-04-01T10:46:50.034Z,102302.48
2019-04-01T10:49:21.690Z,102301.21
2019-04-01T10:51:54.234Z,102295.33
2019-04-01T10:54:26.229Z,102290.80
2019-04-01T10:56:58.896Z,102288.70
2019-04-01T10:59:30.539Z,102296.80
2019-04-01T11:02:02.582Z,102292.56
2019-04-01T11:04:34.378Z,102293.06
2019-04-01T11:07:06.317Z,102288.54
2019-04-01T11:09:38.849Z,102300.73
2019-04-01T11:12:10.936Z,102295.89
2019-04-01T11:14:42.484Z,102293.48
2019-04-01T11:17:15.407Z,102294.11
2019-04-01T11:19:47.855Z,102293.67
2019-04-01T11:22:19.615Z,102289.44
2019-04-01T11:24:52.721Z,102287.59
2019-04-01T11:27:24.303Z,102282.53
2019-04-01T11:29:55.838Z,102282.33
2019-04-01T11:32:28.828Z,102281.66
2019-04-01T11:35:00.656Z,102270.20
2019-04-01T11:37:32.159Z,102271.55
2019-04-01T11:40:10.975Z,102270.09
2019-04-01T11:42:41.086Z,102266.47
2019-04-01T11:45:12.653Z,102264.69
2019-04-01T11:47:44.214Z,102263.52
2019-04-01T11:50:16.315Z,102258.42
2019-04-01T11:52:47.891Z,102247.13
2019-04-01T11:55:19.378Z,102247.77
2019-04-01T11:57:57.656Z,102243.85
2019-04-01T12:00:26.195Z,102243.03
2019-04-01T12:02:58.904Z,102245.20
2019-04-01T12:05:31.290Z,102246.34
2019-04-01T12:08:02.877Z,102232.48
2019-04-01T12:10:35.630Z,102240.58
2019-04-01T12:13:07.181Z,102230.09
2019-04-01T12:15:38.693Z,102226.23
2019-04-01T12:18:10.239Z,102241.23
2019-04-01T12:20:42.826Z,102225.12
2019-04-01T12:23:14.928Z,102224.69
2019-04-01T12:25:46.638Z,102221.91
2019-04-01T12:28:18.676Z,102225.40
2019-04-01T12:30:52.107Z,102209.64
2019-04-01T12:33:26.184Z,102217.78
2019-04-01T12:35:57.278Z,102213.11
2019-04-01T12:38:29.282Z,102206.45
2019-04-01T12:41:00.879Z,102211.27
2019-04-01T12:43:32.582Z,102207.50
2019-04-01T12:46:04.943Z,102199.27
2019-04-01T12:48:37.234Z,102205.03
2019-04-01T12:51:09.342Z,102197.78
2019-04-01T12:53:42.207Z,102193.52
2019-04-01T12:56:14.063Z,102185.08
2019-04-01T12:58:45.760Z,102185.79
2019-04-01T13:01:17.277Z,102191.45
2019-04-01T13:03:49.583Z,102181.74
2019-04-01T13:06:22.131Z,102187.08
2019-04-01T13:08:55.431Z,102178.62
2019-04-01T13:11:28.132Z,102172.36
2019-04-01T13:14:01.441Z,102179.97
2019-04-01T13:16:33.579Z,102174.02
2019-04-01T13:19:08.100Z,102158.67
2019-04-01T13:21:40.134Z,102163.15
2019-04-01T13:24:11.896Z,102158.80
2019-04-01T13:26:43.461Z,102159.06
2019-04-01T13:29:15.563Z,102158.17
2019-04-01T13:31:47.418Z,102171.73
2019-04-01T13:34:20.274Z,102154.22
2019-04-01T13:36:51.956Z,102146.05
2019-04-01T13:39:23.609Z,102152.84
2019-04-01T13:41:56.283Z,102142.05
2019-04-01T13:44:36.619Z,102152.61
2019-04-01T13:47:07.616Z,102146.91
2019-04-01T13:49:34.696Z,102135.66
2019-04-01T13:52:06.506Z,102138.73
2019-04-01T13:54:38.032Z,102131.02
2019-04-01T13:57:09.573Z,102138.16
